createdAt,value
2018-03-28T08:08:07.080Z,33.15
2018-03-28T08:10:35.183Z,28.35
2018-03-28T08:13:03.379Z,30.15
2018-03-28T08:15:31.459Z,30.60
2018-03-28T08:17:59.660Z,29.90
2018-03-28T08:20:27.868Z,29.20
2018-03-28T08:22:56.162Z,26.75
2018-03-28T08:25:24.277Z,26.50
2018-03-28T08:27:52.641Z,35.58
2018-03-28T08:30:20.742Z,31.23
2018-03-28T08:32:48.954Z,30.70
2018-03-28T08:35:17.226Z,27.35
2018-03-28T08:37:45.526Z,30.62
2018-03-28T08:40:13.726Z,26.87
2018-03-28T08:42:41.865Z,23.95
2018-03-28T08:45:09.938Z,30.70
2018-03-28T08:47:38.042Z,27.92
2018-03-28T08:50:06.037Z,28.27
2018-03-28T08:52:34.137Z,29.10
2018-03-28T08:55:02.101Z,31.43
2018-03-28T08:57:30.247Z,25.33
2018-03-28T08:59:58.222Z,29.67
2018-03-28T09:02:26.277Z,29.00
2018-03-28T09:04:54.283Z,26.23
2018-03-28T09:07:22.265Z,28.97
2018-03-28T09:09:50.275Z,25.50
2018-03-28T09:12:18.300Z,23.13
2018-03-28T09:14:46.446Z,24.63
2018-03-28T09:17:14.697Z,26.00
2018-03-28T09:19:42.942Z,27.00
2018-03-28T09:22:11.080Z,27.23
2018-03-28T09:24:39.206Z,25.35
2018-03-28T09:27:07.217Z,26.70
2018-03-28T09:29:35.336Z,28.25
2018-03-28T09:32:03.333Z,24.98
2018-03-28T09:34:31.406Z,25.62
2018-03-28T09:36:59.376Z,25.75
2018-03-28T09:39:27.516Z,25.20
2018-03-28T09:41:55.537Z,27.13
2018-03-28T09:44:23.559Z,27.40
2018-03-28T09:46:51.537Z,31.12
2018-03-28T09:49:19.616Z,24.70
2018-03-28T09:51:47.711Z,25.98
2018-03-28T09:54:15.816Z,21.58
2018-03-28T09:56:43.989Z,24.00
2018-03-28T09:59:12.206Z,28.58
2018-03-28T10:01:40.329Z,23.85
2018-03-28T10:04:08.682Z,24.58
2018-03-28T10:06:36.672Z,28.75
2018-03-28T10:09:04.857Z,24.35
2018-03-28T10:11:32.841Z,25.00
2018-03-28T10:14:00.855Z,25.48
2018-03-28T10:16:28.884Z,23.05
2018-03-28T10:18:56.956Z,22.35
2018-03-28T10:21:24.897Z,26.08
2018-03-28T10:23:52.930Z,26.58
2018-03-28T10:26:21.098Z,21.87
2018-03-28T10:28:49.265Z,21.45
2018-03-28T10:31:17.336Z,24.52
2018-03-28T10:33:45.505Z,21.42
2018-03-28T10:36:13.492Z,21.55
2018-03-28T10:38:41.658Z,21.98
2018-03-28T10:41:09.658Z,23.17
2018-03-28T10:43:37.741Z,26.15
2018-03-28T10:46:05.699Z,26.90
2018-03-28T10:48:33.836Z,26.83
2018-03-28T10:51:01.877Z,26.35
2018-03-28T10:53:29.920Z,24.58
2018-03-28T10:55:57.904Z,25.25
2018-03-28T10:58:26.057Z,26.65
2018-03-28T11:00:53.941Z,26.30
2018-03-28T11:03:22.000Z,23.35
2018-03-28T11:05:49.901Z,26.85
2018-03-28T11:08:18.120Z,28.85
2018-03-28T11:10:46.320Z,26.73
2018-03-28T11:13:14.504Z,24.92
2018-03-28T11:15:42.603Z,25.95
2018-03-28T11:18:11.824Z,24.27
2018-03-28T11:20:40.005Z,21.52
2018-03-28T11:23:08.203Z,23.70
2018-03-28T11:25:36.404Z,24.12
2018-03-28T11:28:04.503Z,23.12
2018-03-28T11:30:32.628Z,23.23
2018-03-28T11:33:00.694Z,22.33
2018-03-28T11:35:28.877Z,24.33
2018-03-28T11:37:57.110Z,23.73
2018-03-28T11:40:25.358Z,25.12
2018-03-28T11:42:53.438Z,24.10
2018-03-28T11:45:21.639Z,24.15
2018-03-28T11:47:49.840Z,26.17
2018-03-28T11:50:18.048Z,24.20
2018-03-28T11:52:46.139Z,22.05
2018-03-28T11:55:14.319Z,25.80
2018-03-28T11:57:42.439Z,23.15
2018-03-28T12:00:11.019Z,24.12
2018-03-28T12:02:39.225Z,22.10
2018-03-28T12:05:07.414Z,27.92
2018-03-28T12:07:35.429Z,21.75
2018-03-28T12:10:03.594Z,21.40
2018-03-28T12:12:31.691Z,22.15
2018-03-28T12:14:59.887Z,22.60
2018-03-28T12:17:27.869Z,20.95
2018-03-28T12:19:55.924Z,24.02
2018-03-28T12:22:23.863Z,24.20
2018-03-28T12:24:52.039Z,22.80
2018-03-28T12:27:20.134Z,23.77
2018-03-28T12:29:48.335Z,26.55
2018-03-28T12:32:16.614Z,21.25
2018-03-28T12:34:44.921Z,22.65
2018-03-28T12:37:12.961Z,23.92
2018-03-28T12:39:41.107Z,26.10
2018-03-28T12:42:09.143Z,21.23
2018-03-28T12:44:37.345Z,21.92
2018-03-28T12:47:05.404Z,23.10
2018-03-28T12:49:33.592Z,21.23
2018-03-28T12:52:01.584Z,27.20
2018-03-28T12:54:29.608Z,26.05
2018-03-28T12:56:57.676Z,23.20
2018-03-28T12:59:25.806Z,20.15
2018-03-28T13:01:54.059Z,21.75
2018-03-28T13:04:22.081Z,23.40
2018-03-28T13:06:50.362Z,23.52
2018-03-28T13:09:18.474Z,21.33
2018-03-28T13:11:46.680Z,24.12
2018-03-28T13:14:14.763Z,25.35
2018-03-28T13:16:42.956Z,23.08
2018-03-28T13:19:10.925Z,21.05
2018-03-28T13:21:38.920Z,26.10
2018-03-28T13:24:06.902Z,24.85
2018-03-28T13:26:35.055Z,25.45
2018-03-28T13:29:03.760Z,29.25
2018-03-28T13:31:31.864Z,28.83
2018-03-28T13:34:00.061Z,28.50
2018-03-28T13:36:28.448Z,28.85
2018-03-28T13:38:56.646Z,28.08
2018-03-28T13:41:24.950Z,36.30
2018-03-28T13:43:53.151Z,30.00
2018-03-28T13:46:21.337Z,28.75
2018-03-28T13:48:49.619Z,27.33
2018-03-28T13:51:17.819Z,27.35
2018-03-28T13:53:45.779Z,32.92
2018-03-28T13:56:14.000Z,31.87
2018-03-28T13:58:42.196Z,27.37
2018-03-28T14:01:10.395Z,26.23
2018-03-28T14:03:38.477Z,24.30
2018-03-28T14:06:06.684Z,28.30
2018-03-28T14:08:34.882Z,25.05
2018-03-28T14:11:03.066Z,26.05
2018-03-28T14:13:31.884Z,29.02
2018-03-28T14:15:59.977Z,23.85
2018-03-28T14:18:28.156Z,25.75
2018-03-28T14:20:56.387Z,26.77
2018-03-28T14:23:24.559Z,24.42
2018-03-28T14:25:52.962Z,26.40
2018-03-28T14:28:21.100Z,30.00
2018-03-28T14:30:49.469Z,26.83
2018-03-28T14:33:17.638Z,26.95
2018-03-28T14:35:45.833Z,26.67
2018-03-28T14:38:13.924Z,30.02
2018-03-28T14:40:42.117Z,24.42
2018-03-28T14:43:10.316Z,25.98
2018-03-28T14:45:38.500Z,27.02
2018-03-28T14:48:06.704Z,25.25
2018-03-28T14:50:34.905Z,27.98
2018-03-28T14:53:03.104Z,32.05
2018-03-28T14:55:31.289Z,27.20
2018-03-28T14:57:59.582Z,23.85
2018-03-28T15:00:27.785Z,29.27
2018-03-28T15:02:56.068Z,24.12
2018-03-28T15:05:24.464Z,25.12
2018-03-28T15:07:52.776Z,26.20
2018-03-28T15:10:20.895Z,33.28
2018-03-28T15:12:48.959Z,24.58
2018-03-28T15:15:17.046Z,29.10
2018-03-28T15:17:45.249Z,28.52
2018-03-28T15:20:13.440Z,26.77
2018-03-28T15:22:41.636Z,26.48
2018-03-28T15:25:09.822Z,28.20
2018-03-28T15:27:37.913Z,28.52
2018-03-28T15:30:06.121Z,23.35
2018-03-28T15:32:34.293Z,26.37
2018-03-28T15:35:02.500Z,26.90
2018-03-28T15:37:30.598Z,22.73
2018-03-28T15:39:58.886Z,28.62
2018-03-28T15:42:27.192Z,20.45
2018-03-28T15:44:56.438Z,23.75
2018-03-28T15:47:24.800Z,25.25
2018-03-28T15:49:53.091Z,25.10
2018-03-28T15:52:21.495Z,24.77
2018-03-28T15:54:49.600Z,27.45
2018-03-28T15:57:17.785Z,23.23
2018-03-28T15:59:45.863Z,25.55
2018-03-28T16:02:14.078Z,23.92
2018-03-28T16:04:42.356Z,25.85
2018-03-28T16:07:10.560Z,23.90
2018-03-28T16:09:38.750Z,26.17
2018-03-28T16:12:06.940Z,22.08
2018-03-28T16:14:35.039Z,24.63
2018-03-28T16:17:03.238Z,23.67
2018-03-28T16:19:31.444Z,22.90
2018-03-28T16:21:59.718Z,25.65
2018-03-28T16:24:27.919Z,21.30
2018-03-28T16:26:56.120Z,24.12
2018-03-28T16:29:24.400Z,22.35
2018-03-28T16:31:52.607Z,22.55
2018-03-28T16:34:20.715Z,20.45
2018-03-28T16:36:48.763Z,20.73
2018-03-28T16:39:16.980Z,26.27
2018-03-28T16:41:45.198Z,24.83
2018-03-28T16:44:13.371Z,22.00
2018-03-28T16:46:41.562Z,23.95
2018-03-28T16:49:09.765Z,23.77
2018-03-28T16:51:37.947Z,23.50
2018-03-28T16:54:06.142Z,23.25
2018-03-28T16:56:34.285Z,26.73
2018-03-28T16:59:02.640Z,20.23
2018-03-28T17:01:30.840Z,20.00
2018-03-28T17:03:59.027Z,23.45
2018-03-28T17:06:27.216Z,25.10
2018-03-28T17:08:55.426Z,25.15
2018-03-28T17:11:23.726Z,25.23
2018-03-28T17:13:52.412Z,25.55
2018-03-28T17:16:20.517Z,23.92
2018-03-28T17:18:48.540Z,30.10
2018-03-28T17:21:16.800Z,24.30
2018-03-28T17:23:44.994Z,18.62
2018-03-28T17:26:13.696Z,23.83
2018-03-28T17:28:41.899Z,25.30
2018-03-28T17:31:10.079Z,25.20
2018-03-28T17:33:38.273Z,20.55
2018-03-28T17:36:06.480Z,21.23
2018-03-28T17:38:34.776Z,21.98
2018-03-28T17:41:03.077Z,20.50
2018-03-28T17:43:31.164Z,18.40
2018-03-28T17:45:59.570Z,19.37
2018-03-28T17:48:27.856Z,20.88
2018-03-28T17:50:56.059Z,18.77
2018-03-28T17:53:24.156Z,25.42
2018-03-28T17:55:52.270Z,20.58
2018-03-28T17:58:20.533Z,21.00
2018-03-28T18:00:48.459Z,21.00
2018-03-28T18:03:16.717Z,21.83
2018-03-28T18:05:44.817Z,21.02
2018-03-28T18:08:13.095Z,21.42
2018-03-28T18:10:41.296Z,23.35
2018-03-28T18:13:09.494Z,22.67
2018-03-28T18:15:37.594Z,18.20
2018-03-28T18:18:05.778Z,18.27
2018-03-28T18:20:34.080Z,19.67
2018-03-28T18:23:02.280Z,22.25
2018-03-28T18:25:30.460Z,20.90
2018-03-28T18:27:58.774Z,17.87
2018-03-28T18:30:26.970Z,28.48
2018-03-28T18:32:55.158Z,22.15
2018-03-28T18:35:23.243Z,41.22
2018-03-28T18:37:51.452Z,45.28
2018-03-28T18:40:19.725Z,30.08
2018-03-28T18:42:47.780Z,29.45
2018-03-28T18:45:15.924Z,20.75
2018-03-28T18:47:44.174Z,21.40
2018-03-28T18:50:12.400Z,26.00
2018-03-28T18:52:40.599Z,57.33
2018-03-28T18:55:08.807Z,131.73
2018-03-28T18:57:36.996Z,221.43
2018-03-28T19:00:05.178Z,121.25
2018-03-28T19:02:33.687Z,83.45
2018-03-28T19:05:01.999Z,68.37
2018-03-28T19:07:30.174Z,121.75
2018-03-28T19:09:58.474Z,80.00
2018-03-28T19:12:26.675Z,74.95
2018-03-28T19:14:54.775Z,56.90
2018-03-28T19:17:22.854Z,46.05
2018-03-28T19:19:51.055Z,36.65
2018-03-28T19:22:19.257Z,29.08
2018-03-28T19:24:47.335Z,33.22
2018-03-28T19:27:15.435Z,25.77
2018-03-28T19:29:43.524Z,31.87
2018-03-28T19:32:11.614Z,71.07
2018-03-28T19:34:39.716Z,137.07
2018-03-28T19:37:08.815Z,241.95
2018-03-28T19:39:36.914Z,70.22
2018-03-28T19:42:05.115Z,22.60
2018-03-28T19:44:33.195Z,27.65
2018-03-28T19:47:01.275Z,32.25
2018-03-28T19:49:29.375Z,26.33
2018-03-28T19:51:59.115Z,30.45
2018-03-28T19:54:27.716Z,37.55
2018-03-28T19:56:55.815Z,27.20
2018-03-28T19:59:24.094Z,43.83
2018-03-28T20:01:52.395Z,62.33
2018-03-28T20:04:20.596Z,145.40
2018-03-28T20:06:48.695Z,197.40
2018-03-28T20:09:16.874Z,179.30
2018-03-28T20:11:44.998Z,137.57
2018-03-28T20:14:13.174Z,29.90
2018-03-28T20:16:41.263Z,32.17
2018-03-28T20:19:09.655Z,54.53
2018-03-28T20:21:37.757Z,47.92
2018-03-28T20:24:05.960Z,36.20
2018-03-28T20:26:34.034Z,35.72
2018-03-28T20:29:02.234Z,35.05
2018-03-28T20:31:30.423Z,33.65
2018-03-28T20:33:58.715Z,27.25
2018-03-28T20:36:26.815Z,31.37
2018-03-28T20:38:55.114Z,31.00
2018-03-28T20:41:23.215Z,30.55
2018-03-28T20:43:51.395Z,25.40
2018-03-28T20:46:19.635Z,29.75
2018-03-28T20:48:48.192Z,28.02
2018-03-28T20:51:16.389Z,26.33
2018-03-28T20:53:44.480Z,34.83
2018-03-28T20:56:12.578Z,28.55
2018-03-28T20:58:40.860Z,26.45
2018-03-28T21:01:09.065Z,28.05
2018-03-28T21:03:37.252Z,28.73
2018-03-28T21:06:05.343Z,28.40
2018-03-28T21:08:33.636Z,27.83
2018-03-28T21:11:01.836Z,30.12
2018-03-28T21:13:29.938Z,34.97
2018-03-28T21:15:58.129Z,24.27
2018-03-28T21:18:27.438Z,29.20
2018-03-28T21:20:55.559Z,29.63
2018-03-28T21:23:24.236Z,33.15
2018-03-28T21:25:52.216Z,27.95
2018-03-28T21:28:20.329Z,32.53
2018-03-28T21:30:48.421Z,26.37
2018-03-28T21:33:16.737Z,29.30
2018-03-28T21:35:45.014Z,25.15
2018-03-28T21:38:13.099Z,30.88
2018-03-28T21:40:41.195Z,31.08
2018-03-28T21:43:09.597Z,25.35
2018-03-28T21:45:37.903Z,26.48
2018-03-28T21:48:06.401Z,25.25
2018-03-28T21:50:34.595Z,24.05
2018-03-28T21:53:02.978Z,26.27
2018-03-28T21:55:31.277Z,32.70
2018-03-28T21:57:59.375Z,31.62
2018-03-28T22:00:27.479Z,26.25
2018-03-28T22:02:55.764Z,25.83
2018-03-28T22:05:23.858Z,26.17
2018-03-28T22:07:52.049Z,26.33
2018-03-28T22:10:20.139Z,27.52
2018-03-28T22:12:48.263Z,28.05
2018-03-28T22:15:16.425Z,28.12
2018-03-28T22:17:44.724Z,28.62
2018-03-28T22:20:13.116Z,27.20
2018-03-28T22:22:41.421Z,29.45
2018-03-28T22:25:09.823Z,29.90
2018-03-28T22:27:39.041Z,29.98
2018-03-28T22:30:07.241Z,24.27
2018-03-28T22:32:35.638Z,22.62
2018-03-28T22:35:03.816Z,23.00
2018-03-28T22:37:31.923Z,22.73
2018-03-28T22:40:00.117Z,30.37
2018-03-28T22:42:28.213Z,25.65
2018-03-28T22:44:56.395Z,28.48
2018-03-28T22:47:24.497Z,22.35
2018-03-28T22:49:52.706Z,25.52
2018-03-28T22:52:20.722Z,27.25
2018-03-28T22:54:49.026Z,29.25
2018-03-28T22:57:17.260Z,26.05
2018-03-28T22:59:45.470Z,21.90
2018-03-28T23:02:13.646Z,21.20
2018-03-28T23:04:41.959Z,21.12
2018-03-28T23:07:10.261Z,26.70
2018-03-28T23:09:38.554Z,21.40
2018-03-28T23:12:06.741Z,22.08
2018-03-28T23:14:35.041Z,17.77
2018-03-28T23:17:03.227Z,17.62
2018-03-28T23:19:31.427Z,21.92
2018-03-28T23:21:59.516Z,21.67
2018-03-28T23:24:27.726Z,22.95
2018-03-28T23:26:55.998Z,27.55
2018-03-28T23:29:24.196Z,24.30
2018-03-28T23:31:52.398Z,24.02
2018-03-28T23:34:20.428Z,22.83
2018-03-28T23:36:48.686Z,21.67
2018-03-28T23:39:16.879Z,25.60
2018-03-28T23:41:45.175Z,20.58
2018-03-28T23:44:13.464Z,28.92
2018-03-28T23:46:41.758Z,31.10
2018-03-28T23:49:10.076Z,23.87
2018-03-28T23:51:38.365Z,22.48
2018-03-28T23:54:06.647Z,25.25
2018-03-28T23:56:34.963Z,23.83
2018-03-28T23:59:03.154Z,24.45
